aviador You're here:

CYKF Decoded Metar

WATERLOO in ON, CANADA
Report Time2017-08-18 01:00:00
UTC Time2017-08-18 01:14:27
Flight Rules lifr LIFR
Wind090° at 08 kt
W.Decomp.*RWY 08: 7.5 kt HW 2.7 kt RCW
RWY 14: 6.1 kt HW 5.1 kt LCW
W.Rank090° ranks 15
Current wind is below 090° avg. (8.4)
Visibility6437 m
Phenomena:Mist
Clouds:Overcast 004 Hf
Expected CloudBase > 400 ft AGL from Temp-Dew spread
Ceiling400 ft
Temp19°C (ISA +6)
Dew Point18°C (94% RH)
AAT18.9°C
QNH1008 hPa
Density Alt2,198 ft
Elevation1,040 ft
Report Wrong Elevation
Raw Report
CYKF 180100Z AUTO 09008KT 4SM BR OVC004 19/18 A2978 RMK SLP083
DENSITY ALT 1800FT=

Extra information for CYKF:More info

Metar Taf Metar & Taf Last 4 Metars F.Rules Stats Wind Profile Meteogram Temp Stats Airport Information Weather charts Add Link Nearby VenuesMetar ALERT Operation Metar Decoded Social comments